sensor_id;sensor_type;location;lat;lon;timestamp;P1;durP1;ratioP1;P2;durP2;ratioP2
53765;SDS011;39682;51.490;7.310;2023-04-16T00:00:33;40.30;;;18.48;;
53765;SDS011;39682;51.490;7.310;2023-04-16T00:02:59;38.05;;;18.35;;
53765;SDS011;39682;51.490;7.310;2023-04-16T00:05:25;41.67;;;19.42;;
53765;SDS011;39682;51.490;7.310;2023-04-16T00:07:51;38.10;;;17.00;;
53765;SDS011;39682;51.490;7.310;2023-04-16T00:10:17;36.38;;;17.65;;
53765;SDS011;39682;51.490;7.310;2023-04-16T00:12:43;40.78;;;18.50;;
53765;SDS011;39682;51.490;7.310;2023-04-16T00:15:09;35.08;;;17.42;;
53765;SDS011;39682;51.490;7.310;2023-04-16T00:17:35;36.15;;;18.45;;
53765;SDS011;39682;51.490;7.310;2023-04-16T00:20:01;29.63;;;16.08;;
53765;SDS011;39682;51.490;7.310;2023-04-16T00:22:27;35.55;;;16.55;;
53765;SDS011;39682;51.490;7.310;2023-04-16T00:24:53;34.35;;;17.13;;
53765;SDS011;39682;51.490;7.310;2023-04-16T00:27:19;37.35;;;16.88;;
53765;SDS011;39682;51.490;7.310;2023-04-16T00:29:45;33.65;;;16.42;;
53765;SDS011;39682;51.490;7.310;2023-04-16T00:32:11;34.83;;;16.88;;
53765;SDS011;39682;51.490;7.310;2023-04-16T00:34:37;35.33;;;18.92;;
53765;SDS011;39682;51.490;7.310;2023-04-16T00:37:03;38.00;;;18.15;;
53765;SDS011;39682;51.490;7.310;2023-04-16T00:39:29;38.72;;;16.25;;
53765;SDS011;39682;51.490;7.310;2023-04-16T00:41:55;34.25;;;17.33;;
53765;SDS011;39682;51.490;7.310;2023-04-16T00:44:21;31.48;;;14.43;;
53765;SDS011;39682;51.490;7.310;2023-04-16T00:46:47;33.65;;;17.05;;
53765;SDS011;39682;51.490;7.310;2023-04-16T00:49:13;33.72;;;17.02;;
53765;SDS011;39682;51.490;7.310;2023-04-16T00:51:39;25.95;;;12.07;;
53765;SDS011;39682;51.490;7.310;2023-04-16T00:54:05;28.83;;;15.32;;
53765;SDS011;39682;51.490;7.310;2023-04-16T00:56:32;31.88;;;14.18;;
53765;SDS011;39682;51.490;7.310;2023-04-16T00:58:58;35.45;;;16.83;;
53765;SDS011;39682;51.490;7.310;2023-04-16T01:01:24;33.85;;;16.95;;
53765;SDS011;39682;51.490;7.310;2023-04-16T01:03:50;34.72;;;16.63;;
53765;SDS011;39682;51.490;7.310;2023-04-16T01:06:16;28.95;;;14.93;;
53765;SDS011;39682;51.490;7.310;2023-04-16T01:08:43;36.88;;;17.80;;
53765;SDS011;39682;51.490;7.310;2023-04-16T01:11:09;37.03;;;16.60;;
53765;SDS011;39682;51.490;7.310;2023-04-16T01:13:36;30.38;;;15.07;;
53765;SDS011;39682;51.490;7.310;2023-04-16T01:16:08;38.05;;;17.63;;
53765;SDS011;39682;51.490;7.310;2023-04-16T01:18:35;39.85;;;17.25;;
53765;SDS011;39682;51.490;7.310;2023-04-16T01:21:01;39.25;;;17.80;;
53765;SDS011;39682;51.490;7.310;2023-04-16T01:23:28;34.40;;;18.35;;
53765;SDS011;39682;51.490;7.310;2023-04-16T01:25:54;37.65;;;17.63;;
53765;SDS011;39682;51.490;7.310;2023-04-16T01:28:20;38.78;;;17.75;;
53765;SDS011;39682;51.490;7.310;2023-04-16T01:30:46;41.33;;;17.63;;
53765;SDS011;39682;51.490;7.310;2023-04-16T01:33:12;38.08;;;17.45;;
53765;SDS011;39682;51.490;7.310;2023-04-16T01:35:39;33.42;;;16.75;;
53765;SDS011;39682;51.490;7.310;2023-04-16T01:38:05;43.72;;;18.55;;
53765;SDS011;39682;51.490;7.310;2023-04-16T01:40:32;37.85;;;17.83;;
53765;SDS011;39682;51.490;7.310;2023-04-16T01:42:58;39.00;;;17.75;;
53765;SDS011;39682;51.490;7.310;2023-04-16T01:45:24;30.65;;;15.70;;
53765;SDS011;39682;51.490;7.310;2023-04-16T01:47:50;38.97;;;17.92;;
53765;SDS011;39682;51.490;7.310;2023-04-16T01:50:17;46.80;;;18.48;;
53765;SDS011;39682;51.490;7.310;2023-04-16T01:52:43;36.20;;;17.50;;
53765;SDS011;39682;51.490;7.310;2023-04-16T01:55:09;33.03;;;15.15;;
53765;SDS011;39682;51.490;7.310;2023-04-16T01:57:35;35.40;;;17.65;;
53765;SDS011;39682;51.490;7.310;2023-04-16T02:00:02;38.78;;;19.13;;
53765;SDS011;39682;51.490;7.310;2023-04-16T02:02:28;42.35;;;18.80;;
53765;SDS011;39682;51.490;7.310;2023-04-16T02:04:54;34.33;;;17.30;;
53765;SDS011;39682;51.490;7.310;2023-04-16T02:07:21;37.00;;;18.23;;
53765;SDS011;39682;51.490;7.310;2023-04-16T02:09:47;37.97;;;17.23;;
53765;SDS011;39682;51.490;7.310;2023-04-16T02:12:14;38.85;;;19.20;;
53765;SDS011;39682;51.490;7.310;2023-04-16T02:14:40;40.80;;;18.67;;
53765;SDS011;39682;51.490;7.310;2023-04-16T02:17:06;37.85;;;18.15;;
53765;SDS011;39682;51.490;7.310;2023-04-16T02:19:32;38.85;;;18.67;;
53765;SDS011;39682;51.490;7.310;2023-04-16T02:21:58;36.53;;;18.63;;
53765;SDS011;39682;51.490;7.310;2023-04-16T02:24:25;32.63;;;16.50;;
53765;SDS011;39682;51.490;7.310;2023-04-16T02:26:52;37.92;;;18.27;;
53765;SDS011;39682;51.490;7.310;2023-04-16T02:29:18;38.33;;;20.35;;
53765;SDS011;39682;51.490;7.310;2023-04-16T02:31:44;36.15;;;17.60;;
53765;SDS011;39682;51.490;7.310;2023-04-16T02:34:10;35.35;;;18.75;;
53765;SDS011;39682;51.490;7.310;2023-04-16T02:36:37;31.27;;;16.73;;
53765;SDS011;39682;51.490;7.310;2023-04-16T02:39:03;35.22;;;17.65;;
53765;SDS011;39682;51.490;7.310;2023-04-16T02:41:29;33.38;;;14.93;;
53765;SDS011;39682;51.490;7.310;2023-04-16T02:43:54;33.25;;;17.92;;
53765;SDS011;39682;51.490;7.310;2023-04-16T02:46:21;30.52;;;17.33;;
53765;SDS011;39682;51.490;7.310;2023-04-16T02:48:46;33.08;;;17.00;;
53765;SDS011;39682;51.490;7.310;2023-04-16T02:51:12;31.67;;;17.75;;
53765;SDS011;39682;51.490;7.310;2023-04-16T02:53:38;37.80;;;18.35;;
53765;SDS011;39682;51.490;7.310;2023-04-16T02:56:04;33.60;;;16.52;;
53765;SDS011;39682;51.490;7.310;2023-04-16T02:58:31;28.48;;;17.30;;
53765;SDS011;39682;51.490;7.310;2023-04-16T03:00:57;29.60;;;15.45;;
53765;SDS011;39682;51.490;7.310;2023-04-16T03:03:23;30.77;;;15.82;;
53765;SDS011;39682;51.490;7.310;2023-04-16T03:05:49;29.52;;;16.95;;
53765;SDS011;39682;51.490;7.310;2023-04-16T03:08:15;30.70;;;17.85;;
53765;SDS011;39682;51.490;7.310;2023-04-16T03:10:41;31.08;;;16.95;;
53765;SDS011;39682;51.490;7.310;2023-04-16T03:13:07;32.63;;;16.38;;
53765;SDS011;39682;51.490;7.310;2023-04-16T03:15:33;30.17;;;16.67;;
53765;SDS011;39682;51.490;7.310;2023-04-16T03:17:59;29.20;;;15.65;;
53765;SDS011;39682;51.490;7.310;2023-04-16T03:20:25;30.98;;;15.15;;
53765;SDS011;39682;51.490;7.310;2023-04-16T03:22:50;28.55;;;15.70;;
53765;SDS011;39682;51.490;7.310;2023-04-16T03:25:17;29.40;;;15.68;;
53765;SDS011;39682;51.490;7.310;2023-04-16T03:27:43;30.08;;;17.77;;
53765;SDS011;39682;51.490;7.310;2023-04-16T03:30:09;34.08;;;17.00;;
53765;SDS011;39682;51.490;7.310;2023-04-16T03:32:36;34.63;;;16.63;;
53765;SDS011;39682;51.490;7.310;2023-04-16T03:35:02;31.88;;;17.35;;
53765;SDS011;39682;51.490;7.310;2023-04-16T03:37:28;29.42;;;17.25;;
53765;SDS011;39682;51.490;7.310;2023-04-16T03:39:54;31.17;;;16.75;;
53765;SDS011;39682;51.490;7.310;2023-04-16T03:42:20;32.15;;;16.90;;
53765;SDS011;39682;51.490;7.310;2023-04-16T03:44:46;34.80;;;16.77;;
53765;SDS011;39682;51.490;7.310;2023-04-16T03:47:12;29.38;;;18.00;;
53765;SDS011;39682;51.490;7.310;2023-04-16T03:49:38;33.30;;;16.85;;
53765;SDS011;39682;51.490;7.310;2023-04-16T03:52:04;31.25;;;17.75;;
53765;SDS011;39682;51.490;7.310;2023-04-16T03:54:30;31.27;;;16.77;;
53765;SDS011;39682;51.490;7.310;2023-04-16T03:56:56;33.30;;;15.45;;
53765;SDS011;39682;51.490;7.310;2023-04-16T03:59:22;30.23;;;15.98;;
53765;SDS011;39682;51.490;7.310;2023-04-16T04:01:48;31.85;;;17.33;;
53765;SDS011;39682;51.490;7.310;2023-04-16T04:04:14;41.42;;;19.27;;
53765;SDS011;39682;51.490;7.310;2023-04-16T04:06:40;31.63;;;17.90;;
53765;SDS011;39682;51.490;7.310;2023-04-16T04:09:06;33.97;;;18.02;;
53765;SDS011;39682;51.490;7.310;2023-04-16T04:11:32;37.40;;;18.23;;
53765;SDS011;39682;51.490;7.310;2023-04-16T04:13:58;39.80;;;18.30;;
53765;SDS011;39682;51.490;7.310;2023-04-16T04:16:24;35.28;;;18.38;;
53765;SDS011;39682;51.490;7.310;2023-04-16T04:18:50;38.88;;;16.77;;
53765;SDS011;39682;51.490;7.310;2023-04-16T04:21:17;33.42;;;17.73;;
53765;SDS011;39682;51.490;7.310;2023-04-16T04:23:43;44.70;;;21.13;;
53765;SDS011;39682;51.490;7.310;2023-04-16T04:26:09;41.60;;;20.17;;
53765;SDS011;39682;51.490;7.310;2023-04-16T04:28:34;46.35;;;21.20;;
53765;SDS011;39682;51.490;7.310;2023-04-16T04:31:01;40.47;;;20.20;;
53765;SDS011;39682;51.490;7.310;2023-04-16T04:33:27;44.95;;;21.10;;
53765;SDS011;39682;51.490;7.310;2023-04-16T04:35:53;47.78;;;22.58;;
53765;SDS011;39682;51.490;7.310;2023-04-16T04:38:19;42.85;;;21.40;;
53765;SDS011;39682;51.490;7.310;2023-04-16T04:40:49;38.50;;;19.67;;
53765;SDS011;39682;51.490;7.310;2023-04-16T04:43:15;44.40;;;21.77;;
53765;SDS011;39682;51.490;7.310;2023-04-16T04:45:41;42.88;;;21.23;;
53765;SDS011;39682;51.490;7.310;2023-04-16T04:48:07;40.85;;;20.65;;
53765;SDS011;39682;51.490;7.310;2023-04-16T04:50:33;42.42;;;19.98;;
53765;SDS011;39682;51.490;7.310;2023-04-16T04:52:59;42.10;;;21.27;;
53765;SDS011;39682;51.490;7.310;2023-04-16T04:55:25;43.92;;;21.30;;
53765;SDS011;39682;51.490;7.310;2023-04-16T04:57:51;41.45;;;19.73;;
53765;SDS011;39682;51.490;7.310;2023-04-16T05:00:17;38.33;;;20.70;;
53765;SDS011;39682;51.490;7.310;2023-04-16T05:02:43;43.08;;;21.08;;
53765;SDS011;39682;51.490;7.310;2023-04-16T05:05:12;40.20;;;21.58;;
53765;SDS011;39682;51.490;7.310;2023-04-16T05:07:56;38.58;;;20.33;;
53765;SDS011;39682;51.490;7.310;2023-04-16T05:10:22;41.05;;;20.42;;
53765;SDS011;39682;51.490;7.310;2023-04-16T05:12:48;38.38;;;20.60;;
53765;SDS011;39682;51.490;7.310;2023-04-16T05:15:15;48.08;;;22.55;;
53765;SDS011;39682;51.490;7.310;2023-04-16T05:17:41;42.25;;;20.92;;
53765;SDS011;39682;51.490;7.310;2023-04-16T05:20:07;41.42;;;21.25;;
53765;SDS011;39682;51.490;7.310;2023-04-16T05:22:34;35.70;;;18.95;;
53765;SDS011;39682;51.490;7.310;2023-04-16T05:25:00;41.53;;;20.45;;
53765;SDS011;39682;51.490;7.310;2023-04-16T05:27:26;39.67;;;20.85;;
53765;SDS011;39682;51.490;7.310;2023-04-16T05:29:52;40.58;;;20.52;;
53765;SDS011;39682;51.490;7.310;2023-04-16T05:32:18;37.90;;;20.38;;
53765;SDS011;39682;51.490;7.310;2023-04-16T05:34:44;36.45;;;19.50;;
53765;SDS011;39682;51.490;7.310;2023-04-16T05:37:09;44.47;;;20.25;;
53765;SDS011;39682;51.490;7.310;2023-04-16T05:39:35;40.42;;;21.00;;
53765;SDS011;39682;51.490;7.310;2023-04-16T05:42:01;37.90;;;19.75;;
53765;SDS011;39682;51.490;7.310;2023-04-16T05:44:27;39.45;;;20.42;;
53765;SDS011;39682;51.490;7.310;2023-04-16T05:46:53;38.70;;;19.95;;
53765;SDS011;39682;51.490;7.310;2023-04-16T05:49:20;36.58;;;19.55;;
53765;SDS011;39682;51.490;7.310;2023-04-16T05:51:47;38.97;;;20.05;;
53765;SDS011;39682;51.490;7.310;2023-04-16T05:54:13;36.45;;;19.58;;
53765;SDS011;39682;51.490;7.310;2023-04-16T05:56:39;36.65;;;19.67;;
53765;SDS011;39682;51.490;7.310;2023-04-16T05:59:05;35.72;;;19.65;;
53765;SDS011;39682;51.490;7.310;2023-04-16T06:01:31;39.80;;;20.77;;
53765;SDS011;39682;51.490;7.310;2023-04-16T06:03:57;36.05;;;17.65;;
53765;SDS011;39682;51.490;7.310;2023-04-16T06:06:23;40.72;;;21.42;;
53765;SDS011;39682;51.490;7.310;2023-04-16T06:08:51;41.63;;;21.90;;
53765;SDS011;39682;51.490;7.310;2023-04-16T06:11:17;36.88;;;19.08;;
53765;SDS011;39682;51.490;7.310;2023-04-16T06:13:43;43.75;;;21.15;;
53765;SDS011;39682;51.490;7.310;2023-04-16T06:16:09;42.72;;;22.38;;
53765;SDS011;39682;51.490;7.310;2023-04-16T06:18:35;45.22;;;22.27;;
53765;SDS011;39682;51.490;7.310;2023-04-16T06:21:02;35.15;;;19.15;;
53765;SDS011;39682;51.490;7.310;2023-04-16T06:23:28;39.55;;;20.25;;
53765;SDS011;39682;51.490;7.310;2023-04-16T06:25:54;33.50;;;19.30;;
53765;SDS011;39682;51.490;7.310;2023-04-16T06:28:20;44.67;;;21.58;;
53765;SDS011;39682;51.490;7.310;2023-04-16T06:30:46;33.70;;;20.27;;
53765;SDS011;39682;51.490;7.310;2023-04-16T06:33:12;34.83;;;19.77;;
53765;SDS011;39682;51.490;7.310;2023-04-16T06:35:38;42.42;;;20.38;;
53765;SDS011;39682;51.490;7.310;2023-04-16T06:38:04;36.45;;;19.55;;
53765;SDS011;39682;51.490;7.310;2023-04-16T06:40:30;34.42;;;19.98;;
53765;SDS011;39682;51.490;7.310;2023-04-16T06:42:56;33.78;;;19.48;;
53765;SDS011;39682;51.490;7.310;2023-04-16T06:45:22;33.78;;;20.20;;
53765;SDS011;39682;51.490;7.310;2023-04-16T06:47:48;27.70;;;17.92;;
53765;SDS011;39682;51.490;7.310;2023-04-16T06:50:15;36.38;;;20.27;;
53765;SDS011;39682;51.490;7.310;2023-04-16T06:52:40;31.67;;;18.42;;
53765;SDS011;39682;51.490;7.310;2023-04-16T06:55:07;30.85;;;18.13;;
53765;SDS011;39682;51.490;7.310;2023-04-16T06:57:34;39.75;;;20.10;;
53765;SDS011;39682;51.490;7.310;2023-04-16T07:00:00;33.85;;;18.52;;
53765;SDS011;39682;51.490;7.310;2023-04-16T07:02:26;30.13;;;19.13;;
53765;SDS011;39682;51.490;7.310;2023-04-16T07:04:52;34.05;;;20.30;;
53765;SDS011;39682;51.490;7.310;2023-04-16T07:07:18;29.40;;;17.98;;
53765;SDS011;39682;51.490;7.310;2023-04-16T07:09:44;32.08;;;18.92;;
53765;SDS011;39682;51.490;7.310;2023-04-16T07:12:10;32.75;;;18.48;;
53765;SDS011;39682;51.490;7.310;2023-04-16T07:14:36;32.15;;;18.73;;
53765;SDS011;39682;51.490;7.310;2023-04-16T07:17:02;31.15;;;18.58;;
53765;SDS011;39682;51.490;7.310;2023-04-16T07:19:27;31.17;;;18.23;;
53765;SDS011;39682;51.490;7.310;2023-04-16T07:21:56;34.50;;;18.85;;
53765;SDS011;39682;51.490;7.310;2023-04-16T07:24:22;28.92;;;18.20;;
53765;SDS011;39682;51.490;7.310;2023-04-16T07:26:48;31.90;;;18.88;;
53765;SDS011;39682;51.490;7.310;2023-04-16T07:29:14;32.35;;;18.33;;
53765;SDS011;39682;51.490;7.310;2023-04-16T07:31:40;31.10;;;17.25;;
53765;SDS011;39682;51.490;7.310;2023-04-16T07:34:06;30.92;;;17.83;;
53765;SDS011;39682;51.490;7.310;2023-04-16T07:36:32;33.03;;;19.52;;
53765;SDS011;39682;51.490;7.310;2023-04-16T07:38:58;31.80;;;19.38;;
53765;SDS011;39682;51.490;7.310;2023-04-16T07:41:24;36.15;;;19.67;;
53765;SDS011;39682;51.490;7.310;2023-04-16T07:43:50;33.75;;;19.58;;
53765;SDS011;39682;51.490;7.310;2023-04-16T07:46:16;32.90;;;18.65;;
53765;SDS011;39682;51.490;7.310;2023-04-16T07:48:42;25.83;;;17.05;;
53765;SDS011;39682;51.490;7.310;2023-04-16T07:51:08;31.60;;;19.60;;
53765;SDS011;39682;51.490;7.310;2023-04-16T07:53:34;30.88;;;19.98;;
53765;SDS011;39682;51.490;7.310;2023-04-16T07:56:00;29.00;;;18.42;;
53765;SDS011;39682;51.490;7.310;2023-04-16T07:58:26;30.50;;;18.33;;
53765;SDS011;39682;51.490;7.310;2023-04-16T08:00:52;25.63;;;18.27;;
53765;SDS011;39682;51.490;7.310;2023-04-16T08:03:18;27.42;;;17.83;;
53765;SDS011;39682;51.490;7.310;2023-04-16T08:05:44;25.25;;;16.40;;
53765;SDS011;39682;51.490;7.310;2023-04-16T08:08:10;27.63;;;17.17;;
53765;SDS011;39682;51.490;7.310;2023-04-16T08:10:36;25.48;;;17.27;;
53765;SDS011;39682;51.490;7.310;2023-04-16T08:13:02;31.80;;;17.35;;
53765;SDS011;39682;51.490;7.310;2023-04-16T08:15:28;29.20;;;17.40;;
53765;SDS011;39682;51.490;7.310;2023-04-16T08:17:54;27.38;;;17.48;;
53765;SDS011;39682;51.490;7.310;2023-04-16T08:20:20;30.75;;;18.08;;
53765;SDS011;39682;51.490;7.310;2023-04-16T08:22:47;29.65;;;18.58;;
53765;SDS011;39682;51.490;7.310;2023-04-16T08:25:13;29.75;;;17.60;;
53765;SDS011;39682;51.490;7.310;2023-04-16T08:27:39;27.38;;;17.88;;
53765;SDS011;39682;51.490;7.310;2023-04-16T08:30:05;29.65;;;17.95;;
53765;SDS011;39682;51.490;7.310;2023-04-16T08:32:31;27.83;;;18.08;;
53765;SDS011;39682;51.490;7.310;2023-04-16T08:34:57;29.90;;;19.15;;
53765;SDS011;39682;51.490;7.310;2023-04-16T08:37:24;26.15;;;17.25;;
53765;SDS011;39682;51.490;7.310;2023-04-16T08:39:50;26.48;;;16.40;;
53765;SDS011;39682;51.490;7.310;2023-04-16T08:42:33;26.90;;;17.05;;
53765;SDS011;39682;51.490;7.310;2023-04-16T08:45:07;29.17;;;18.67;;
53765;SDS011;39682;51.490;7.310;2023-04-16T08:47:39;28.25;;;16.27;;
53765;SDS011;39682;51.490;7.310;2023-04-16T08:50:06;25.48;;;16.65;;
53765;SDS011;39682;51.490;7.310;2023-04-16T08:52:33;29.13;;;17.42;;
53765;SDS011;39682;51.490;7.310;2023-04-16T08:57:29;29.17;;;18.00;;
53765;SDS011;39682;51.490;7.310;2023-04-16T08:59:58;25.17;;;15.93;;
53765;SDS011;39682;51.490;7.310;2023-04-16T09:02:25;24.67;;;17.38;;
53765;SDS011;39682;51.490;7.310;2023-04-16T09:04:51;28.15;;;17.02;;
53765;SDS011;39682;51.490;7.310;2023-04-16T09:07:18;23.52;;;17.38;;
53765;SDS011;39682;51.490;7.310;2023-04-16T09:09:45;28.60;;;16.75;;
53765;SDS011;39682;51.490;7.310;2023-04-16T09:12:14;24.90;;;16.90;;
53765;SDS011;39682;51.490;7.310;2023-04-16T09:14:40;24.35;;;16.38;;
53765;SDS011;39682;51.490;7.310;2023-04-16T09:17:07;23.15;;;15.63;;
53765;SDS011;39682;51.490;7.310;2023-04-16T09:19:33;22.45;;;17.13;;
53765;SDS011;39682;51.490;7.310;2023-04-16T09:21:59;25.33;;;15.90;;
53765;SDS011;39682;51.490;7.310;2023-04-16T09:24:25;27.17;;;16.95;;
53765;SDS011;39682;51.490;7.310;2023-04-16T09:26:51;25.80;;;16.73;;
53765;SDS011;39682;51.490;7.310;2023-04-16T09:29:38;25.35;;;16.63;;
53765;SDS011;39682;51.490;7.310;2023-04-16T09:32:05;25.33;;;16.77;;
53765;SDS011;39682;51.490;7.310;2023-04-16T09:34:31;27.60;;;17.85;;
53765;SDS011;39682;51.490;7.310;2023-04-16T09:37:16;25.30;;;17.70;;
53765;SDS011;39682;51.490;7.310;2023-04-16T09:39:43;25.98;;;17.38;;
53765;SDS011;39682;51.490;7.310;2023-04-16T09:42:09;30.50;;;18.15;;
53765;SDS011;39682;51.490;7.310;2023-04-16T09:44:35;28.30;;;16.90;;
53765;SDS011;39682;51.490;7.310;2023-04-16T09:47:05;26.77;;;17.00;;
53765;SDS011;39682;51.490;7.310;2023-04-16T09:49:36;23.83;;;15.73;;
53765;SDS011;39682;51.490;7.310;2023-04-16T09:52:15;24.80;;;17.23;;
53765;SDS011;39682;51.490;7.310;2023-04-16T09:54:48;26.50;;;17.42;;
53765;SDS011;39682;51.490;7.310;2023-04-16T09:57:21;27.08;;;17.45;;
53765;SDS011;39682;51.490;7.310;2023-04-16T09:59:47;24.25;;;17.20;;
53765;SDS011;39682;51.490;7.310;2023-04-16T10:02:16;28.80;;;19.02;;
53765;SDS011;39682;51.490;7.310;2023-04-16T10:04:45;25.52;;;17.33;;
53765;SDS011;39682;51.490;7.310;2023-04-16T10:07:12;23.15;;;15.77;;
53765;SDS011;39682;51.490;7.310;2023-04-16T10:09:38;23.73;;;15.93;;
53765;SDS011;39682;51.490;7.310;2023-04-16T10:12:04;25.50;;;16.60;;
53765;SDS011;39682;51.490;7.310;2023-04-16T10:14:31;26.20;;;16.25;;
53765;SDS011;39682;51.490;7.310;2023-04-16T10:16:58;24.77;;;16.95;;
53765;SDS011;39682;51.490;7.310;2023-04-16T10:19:24;22.13;;;15.80;;
53765;SDS011;39682;51.490;7.310;2023-04-16T10:21:50;23.27;;;17.05;;
53765;SDS011;39682;51.490;7.310;2023-04-16T10:24:17;21.23;;;15.27;;
53765;SDS011;39682;51.490;7.310;2023-04-16T10:26:43;24.38;;;15.63;;
53765;SDS011;39682;51.490;7.310;2023-04-16T10:29:12;20.88;;;14.68;;
53765;SDS011;39682;51.490;7.310;2023-04-16T10:31:38;20.30;;;14.60;;
53765;SDS011;39682;51.490;7.310;2023-04-16T10:34:04;21.45;;;14.35;;
53765;SDS011;39682;51.490;7.310;2023-04-16T10:36:34;22.65;;;16.15;;
53765;SDS011;39682;51.490;7.310;2023-04-16T10:39:00;25.15;;;15.98;;
53765;SDS011;39682;51.490;7.310;2023-04-16T10:41:26;22.33;;;15.82;;
53765;SDS011;39682;51.490;7.310;2023-04-16T10:43:52;21.25;;;15.70;;
53765;SDS011;39682;51.490;7.310;2023-04-16T10:46:30;23.98;;;16.65;;
53765;SDS011;39682;51.490;7.310;2023-04-16T10:49:00;22.83;;;15.80;;
53765;SDS011;39682;51.490;7.310;2023-04-16T10:53:56;21.80;;;14.80;;
53765;SDS011;39682;51.490;7.310;2023-04-16T10:56:25;20.08;;;14.88;;
53765;SDS011;39682;51.490;7.310;2023-04-16T10:58:52;21.27;;;15.38;;
53765;SDS011;39682;51.490;7.310;2023-04-16T11:01:22;23.48;;;15.68;;
53765;SDS011;39682;51.490;7.310;2023-04-16T11:03:51;20.17;;;14.00;;
53765;SDS011;39682;51.490;7.310;2023-04-16T11:06:22;20.17;;;14.63;;
53765;SDS011;39682;51.490;7.310;2023-04-16T11:08:50;19.27;;;14.18;;
53765;SDS011;39682;51.490;7.310;2023-04-16T11:11:16;22.05;;;14.45;;
53765;SDS011;39682;51.490;7.310;2023-04-16T11:13:43;19.73;;;14.48;;
53765;SDS011;39682;51.490;7.310;2023-04-16T11:16:12;17.98;;;14.05;;
53765;SDS011;39682;51.490;7.310;2023-04-16T11:18:38;19.02;;;13.30;;
53765;SDS011;39682;51.490;7.310;2023-04-16T11:21:06;17.02;;;13.60;;
53765;SDS011;39682;51.490;7.310;2023-04-16T11:23:44;22.35;;;13.93;;
53765;SDS011;39682;51.490;7.310;2023-04-16T11:26:26;17.33;;;13.00;;
53765;SDS011;39682;51.490;7.310;2023-04-16T11:28:53;19.02;;;14.23;;
53765;SDS011;39682;51.490;7.310;2023-04-16T11:31:20;18.05;;;12.93;;
53765;SDS011;39682;51.490;7.310;2023-04-16T11:33:47;16.17;;;13.18;;
53765;SDS011;39682;51.490;7.310;2023-04-16T11:36:13;17.40;;;12.63;;
53765;SDS011;39682;51.490;7.310;2023-04-16T11:38:39;15.93;;;12.10;;
53765;SDS011;39682;51.490;7.310;2023-04-16T11:41:06;18.00;;;13.75;;
53765;SDS011;39682;51.490;7.310;2023-04-16T11:43:32;15.50;;;11.90;;
53765;SDS011;39682;51.490;7.310;2023-04-16T11:46:00;17.45;;;12.65;;
53765;SDS011;39682;51.490;7.310;2023-04-16T11:48:44;14.63;;;11.65;;
53765;SDS011;39682;51.490;7.310;2023-04-16T11:51:13;16.33;;;12.50;;
53765;SDS011;39682;51.490;7.310;2023-04-16T11:53:49;17.05;;;12.95;;
53765;SDS011;39682;51.490;7.310;2023-04-16T11:56:33;17.30;;;13.80;;
53765;SDS011;39682;51.490;7.310;2023-04-16T11:59:06;19.20;;;11.98;;
53765;SDS011;39682;51.490;7.310;2023-04-16T12:01:33;18.63;;;13.20;;
53765;SDS011;39682;51.490;7.310;2023-04-16T12:04:00;17.50;;;13.55;;
53765;SDS011;39682;51.490;7.310;2023-04-16T12:06:26;19.33;;;13.40;;
53765;SDS011;39682;51.490;7.310;2023-04-16T12:08:52;18.45;;;12.48;;
53765;SDS011;39682;51.490;7.310;2023-04-16T12:11:18;17.63;;;13.20;;
53765;SDS011;39682;51.490;7.310;2023-04-16T12:16:29;19.33;;;13.43;;
53765;SDS011;39682;51.490;7.310;2023-04-16T12:18:58;18.52;;;13.32;;
53765;SDS011;39682;51.490;7.310;2023-04-16T12:24:21;17.55;;;12.88;;
53765;SDS011;39682;51.490;7.310;2023-04-16T12:26:51;18.38;;;13.85;;
53765;SDS011;39682;51.490;7.310;2023-04-16T12:29:26;17.35;;;12.88;;
53765;SDS011;39682;51.490;7.310;2023-04-16T12:31:53;17.52;;;12.35;;
53765;SDS011;39682;51.490;7.310;2023-04-16T12:34:19;17.20;;;13.45;;
53765;SDS011;39682;51.490;7.310;2023-04-16T12:36:46;18.42;;;13.38;;
53765;SDS011;39682;51.490;7.310;2023-04-16T12:39:14;17.38;;;12.50;;
53765;SDS011;39682;51.490;7.310;2023-04-16T12:41:41;17.42;;;13.82;;
53765;SDS011;39682;51.490;7.310;2023-04-16T12:44:11;16.27;;;12.40;;
53765;SDS011;39682;51.490;7.310;2023-04-16T12:46:38;16.90;;;12.48;;
53765;SDS011;39682;51.490;7.310;2023-04-16T12:49:04;18.77;;;13.80;;
53765;SDS011;39682;51.490;7.310;2023-04-16T12:51:31;17.85;;;12.98;;
53765;SDS011;39682;51.490;7.310;2023-04-16T12:53:57;18.88;;;13.45;;
53765;SDS011;39682;51.490;7.310;2023-04-16T12:56:24;15.32;;;11.80;;
53765;SDS011;39682;51.490;7.310;2023-04-16T12:58:50;17.35;;;12.23;;
53765;SDS011;39682;51.490;7.310;2023-04-16T13:01:17;16.48;;;12.90;;
53765;SDS011;39682;51.490;7.310;2023-04-16T13:03:43;15.57;;;12.32;;
53765;SDS011;39682;51.490;7.310;2023-04-16T13:06:09;15.65;;;12.20;;
53765;SDS011;39682;51.490;7.310;2023-04-16T13:08:35;19.02;;;12.77;;
53765;SDS011;39682;51.490;7.310;2023-04-16T13:11:01;16.85;;;11.82;;
53765;SDS011;39682;51.490;7.310;2023-04-16T13:13:27;16.90;;;13.02;;
53765;SDS011;39682;51.490;7.310;2023-04-16T13:15:53;17.58;;;12.85;;
53765;SDS011;39682;51.490;7.310;2023-04-16T13:18:19;15.82;;;12.68;;
53765;SDS011;39682;51.490;7.310;2023-04-16T13:20:45;15.68;;;12.05;;
53765;SDS011;39682;51.490;7.310;2023-04-16T13:23:11;16.45;;;12.27;;
53765;SDS011;39682;51.490;7.310;2023-04-16T13:25:37;15.38;;;12.18;;
53765;SDS011;39682;51.490;7.310;2023-04-16T13:28:03;16.10;;;11.50;;
53765;SDS011;39682;51.490;7.310;2023-04-16T13:30:29;16.75;;;12.35;;
53765;SDS011;39682;51.490;7.310;2023-04-16T13:32:57;16.40;;;12.27;;
53765;SDS011;39682;51.490;7.310;2023-04-16T13:35:23;16.35;;;11.55;;
53765;SDS011;39682;51.490;7.310;2023-04-16T13:37:49;16.30;;;12.48;;
53765;SDS011;39682;51.490;7.310;2023-04-16T13:40:15;16.85;;;12.82;;
53765;SDS011;39682;51.490;7.310;2023-04-16T13:42:41;16.92;;;12.13;;
53765;SDS011;39682;51.490;7.310;2023-04-16T13:45:07;15.32;;;10.98;;
53765;SDS011;39682;51.490;7.310;2023-04-16T13:47:37;16.92;;;11.50;;
53765;SDS011;39682;51.490;7.310;2023-04-16T13:50:03;16.83;;;12.25;;
53765;SDS011;39682;51.490;7.310;2023-04-16T13:52:29;15.70;;;11.48;;
53765;SDS011;39682;51.490;7.310;2023-04-16T13:54:55;16.23;;;11.75;;
53765;SDS011;39682;51.490;7.310;2023-04-16T13:57:21;15.45;;;11.40;;
53765;SDS011;39682;51.490;7.310;2023-04-16T13:59:47;15.52;;;10.80;;
53765;SDS011;39682;51.490;7.310;2023-04-16T14:02:13;13.88;;;10.43;;
53765;SDS011;39682;51.490;7.310;2023-04-16T14:04:39;14.35;;;10.00;;
53765;SDS011;39682;51.490;7.310;2023-04-16T14:07:05;12.02;;;9.13;;
53765;SDS011;39682;51.490;7.310;2023-04-16T14:09:31;14.95;;;10.88;;
53765;SDS011;39682;51.490;7.310;2023-04-16T14:11:57;15.68;;;10.70;;
53765;SDS011;39682;51.490;7.310;2023-04-16T14:14:23;11.77;;;9.85;;
53765;SDS011;39682;51.490;7.310;2023-04-16T14:16:50;11.65;;;9.68;;
53765;SDS011;39682;51.490;7.310;2023-04-16T14:19:16;13.27;;;9.95;;
53765;SDS011;39682;51.490;7.310;2023-04-16T14:21:42;12.40;;;9.60;;
53765;SDS011;39682;51.490;7.310;2023-04-16T14:24:07;16.55;;;11.82;;
53765;SDS011;39682;51.490;7.310;2023-04-16T14:26:34;26.40;;;16.65;;
53765;SDS011;39682;51.490;7.310;2023-04-16T14:29:00;18.77;;;12.07;;